Time;durP1;ratioP1;P1;durP2;ratioP2;P2;SDS_P1;SDS_P2;PMS_P1;PMS_P2;Temp;Humidity;BMP_temperature;BMP_pressure;BME280_temperature;BME280_humidity;BME280_pressure;Samples;Min_cycle;Max_cycle;Signal;HPM_P1;HPM_P2
2021/06/19 00:01:53;;;;;;;12.28;9.55;;;;;;;17.37;85.66;101215.41;1744398;82;20849;-72
2021/06/19 00:04:19;;;;;;;12.98;9.15;;;;;;;17.35;85.76;101214.68;1744742;82;20881;-73
2021/06/19 00:09:36;;;;;;;14.07;10.55;;;;;;;17.29;85.93;101208.04;1798696;79;22490;-72
2021/06/19 00:12:05;;;;;;;12.63;9.93;;;;;;;17.17;86.40;101219.14;1758288;81;20837;-72
2021/06/19 00:14:32;;;;;;;9.80;8.90;;;;;;;17.12;86.70;101217.80;1758246;81;21177;-73
2021/06/19 00:16:59;;;;;;;18.75;11.60;;;;;;;17.09;87.19;101220.70;1758318;80;20971;-73
2021/06/19 00:19:26;;;;;;;12.90;10.48;;;;;;;17.06;87.50;101209.02;1758282;81;20920;-71
2021/06/19 00:21:53;;;;;;;11.60;9.75;;;;;;;17.09;87.58;101211.42;1758201;81;21393;-72
2021/06/19 00:24:22;;;;;;;14.40;10.00;;;;;;;17.11;87.60;101211.66;1758298;81;20975;-73
2021/06/19 00:26:50;;;;;;;12.55;10.50;;;;;;;17.12;87.32;101208.52;1758310;80;21126;-71
2021/06/19 00:29:17;;;;;;;12.68;9.18;;;;;;;17.11;86.95;101209.01;1758263;81;20920;-72
2021/06/19 00:31:44;;;;;;;25.45;10.88;;;;;;;17.11;85.83;101214.31;1758527;81;21346;-72
2021/06/19 00:34:12;;;;;;;14.07;9.63;;;;;;;17.11;85.83;101214.31;1758063;81;20916;-72
2021/06/19 00:36:39;;;;;;;12.60;9.08;;;;;;;17.11;85.91;101212.15;1758655;81;20884;-72
2021/06/19 00:39:06;;;;;;;12.90;9.58;;;;;;;17.11;85.91;101212.15;1758373;80;21120;-73
2021/06/19 00:41:36;;;;;;;15.83;10.30;;;;;;;17.07;85.22;101219.97;1758128;80;20880;-73
2021/06/19 00:44:04;;;;;;;12.80;9.75;;;;;;;17.07;85.22;101219.97;1758349;80;20873;-73
2021/06/19 00:46:32;;;;;;;15.35;10.23;;;;;;;17.04;85.77;101214.92;1758207;80;20892;-72
2021/06/19 00:48:58;;;;;;;10.63;9.30;;;;;;;17.03;86.01;101214.54;1758407;81;21489;-72
2021/06/19 00:51:25;;;;;;;10.15;9.15;;;;;;;17.03;86.01;101214.54;1758511;81;21058;-73
2021/06/19 00:53:52;;;;;;;17.30;10.00;;;;;;;16.99;85.63;101230.69;1758270;81;21391;-73
2021/06/19 00:56:19;;;;;;;18.48;10.93;;;;;;;16.99;85.63;101230.69;1758206;81;20931;-72
2021/06/19 00:58:46;;;;;;;14.20;10.28;;;;;;;16.98;85.55;101230.34;1758302;80;20884;-74
2021/06/19 01:01:15;;;;;;;16.07;11.53;;;;;;;16.97;85.55;101225.98;1758329;81;20880;-74
2021/06/19 01:03:42;;;;;;;17.35;9.93;;;;;;;16.94;85.75;101226.23;1758171;80;21133;-74
2021/06/19 01:06:10;;;;;;;10.35;8.78;;;;;;;16.93;85.86;101227.19;1758257;81;20932;-74
2021/06/19 01:08:37;;;;;;;10.72;8.73;;;;;;;16.93;86.02;101234.30;1758318;81;20967;-73
2021/06/19 01:11:04;;;;;;;16.50;8.73;;;;;;;16.87;86.22;101232.11;1758678;81;21403;-73
2021/06/19 01:13:30;;;;;;;14.23;9.00;;;;;;;16.84;86.49;101241.14;1758591;80;20841;-74
2021/06/19 01:15:59;;;;;;;8.65;7.75;;;;;;;16.81;86.62;101244.03;1758634;81;21425;-74
2021/06/19 01:18:26;;;;;;;11.10;7.87;;;;;;;16.77;86.93;101239.89;1758649;81;20876;-74
2021/06/19 01:20:53;;;;;;;11.97;8.40;;;;;;;16.76;87.40;101239.06;1759216;81;21315;-72
2021/06/19 01:23:20;;;;;;;10.78;6.97;;;;;;;16.76;87.40;101239.06;1758380;81;21432;-72
2021/06/19 01:25:47;;;;;;;10.85;8.43;;;;;;;16.80;87.49;101234.38;1758260;81;20944;-72
2021/06/19 01:28:14;;;;;;;17.20;8.03;;;;;;;16.81;87.38;101237.88;1757936;81;21639;-73
2021/06/19 01:30:41;;;;;;;8.35;7.53;;;;;;;16.77;87.51;101243.87;1757885;81;20865;-72
2021/06/19 01:33:08;;;;;;;9.60;7.42;;;;;;;16.76;87.20;101244.81;1758200;80;20967;-72
2021/06/19 01:35:36;;;;;;;13.35;8.30;;;;;;;16.76;87.20;101244.81;1757990;81;20884;-73
2021/06/19 01:38:04;;;;;;;11.70;7.97;;;;;;;16.76;87.04;101253.63;1758207;81;21458;-72
2021/06/19 01:40:32;;;;;;;10.60;7.65;;;;;;;16.81;87.14;101249.33;1695911;83;21113;-72
2021/06/19 01:43:00;;;;;;;14.03;8.80;;;;;;;16.81;87.14;101249.33;1721893;83;20911;-71
2021/06/19 01:45:33;;;;;;;18.70;9.73;;;;;;;16.83;86.66;101246.09;1721839;82;21049;-71
2021/06/19 01:48:05;;;;;;;16.73;10.48;;;;;;;16.84;86.59;101250.90;1721843;83;21385;-72
2021/06/19 01:50:32;;;;;;;18.90;11.08;;;;;;;16.85;86.52;101248.59;1703747;84;20869;-71
2021/06/19 01:53:00;;;;;;;20.68;10.88;;;;;;;16.84;86.56;101257.03;1703766;84;21435;-72
2021/06/19 01:55:28;;;;;;;17.82;10.80;;;;;;;16.84;86.76;101250.41;1703714;84;21016;-71
2021/06/19 01:57:57;;;;;;;24.25;10.78;;;;;;;16.82;86.27;101247.52;1703789;84;20874;-72
2021/06/19 02:00:29;;;;;;;27.82;10.08;;;;;;;16.81;86.34;101253.30;1703715;84;20902;-72
2021/06/19 02:02:56;;;;;;;26.07;10.48;;;;;;;16.81;86.27;101256.41;1704035;84;20917;-73
2021/06/19 02:05:23;;;;;;;14.65;9.90;;;;;;;16.78;86.34;101262.77;1703792;84;21441;-73
2021/06/19 02:07:53;;;;;;;15.53;10.68;;;;;;;16.76;86.32;101256.73;1703634;84;20993;-73
2021/06/19 02:10:23;;;;;;;18.00;10.15;;;;;;;16.73;86.44;101256.98;1700798;84;21542;-73
2021/06/19 02:12:50;;;;;;;12.40;9.78;;;;;;;16.72;86.45;101258.79;1701331;84;21418;-72
2021/06/19 02:15:19;;;;;;;17.15;10.53;;;;;;;16.66;86.48;101249.98;1708631;83;20893;-71
2021/06/19 02:17:46;;;;;;;15.58;9.38;;;;;;;16.66;86.48;101249.98;1708651;84;21562;-72
2021/06/19 02:20:14;;;;;;;11.33;9.53;;;;;;;16.67;87.16;101256.11;1708431;84;20884;-71
2021/06/19 02:22:43;;;;;;;22.27;10.82;;;;;;;16.73;87.07;101256.48;1708571;83;21379;-72
2021/06/19 02:25:13;;;;;;;14.90;10.15;;;;;;;16.73;87.07;101256.48;1708507;84;21490;-72
2021/06/19 02:27:58;;;;;;;18.07;11.40;;;;;;;16.78;86.83;101262.77;1708589;84;21410;-72
2021/06/19 02:30:28;;;;;;;24.47;12.65;;;;;;;16.81;86.75;101265.23;1708495;84;21185;-72
2021/06/19 02:32:55;;;;;;;17.55;11.38;;;;;;;16.86;86.90;101260.91;1708403;83;20881;-71
2021/06/19 02:35:25;;;;;;;22.67;11.12;;;;;;;16.90;86.97;101261.03;1708845;83;20905;-72
2021/06/19 02:37:52;;;;;;;24.72;10.45;;;;;;;16.97;86.95;101265.73;1708588;84;20921;-72
2021/06/19 02:40:19;;;;;;;15.48;9.70;;;;;;;16.97;86.95;101265.73;1708772;84;21083;-72
2021/06/19 02:42:46;;;;;;;27.13;10.50;;;;;;;17.02;86.79;101263.22;1708539;84;21399;-72
2021/06/19 02:45:13;;;;;;;21.10;10.05;;;;;;;17.04;86.80;101262.13;1708543;84;20942;-73
2021/06/19 02:47:44;;;;;;;17.32;10.50;;;;;;;17.09;86.79;101268.40;1708529;83;20984;-72
2021/06/19 02:50:13;;;;;;;34.92;11.08;;;;;;;17.13;86.83;101257.93;1708732;84;20904;-71
2021/06/19 02:52:43;;;;;;;18.82;11.30;;;;;;;17.17;86.79;101262.87;1708565;84;21438;-71
2021/06/19 02:55:16;;;;;;;22.37;11.78;;;;;;;17.23;86.80;101253.61;1708810;83;21184;-71
2021/06/19 02:57:43;;;;;;;15.15;10.32;;;;;;;17.27;86.69;101257.69;1708528;84;20941;-71
2021/06/19 03:00:12;;;;;;;17.45;10.30;;;;;;;17.31;86.72;101259.14;1708719;84;20956;-72
2021/06/19 03:02:39;;;;;;;11.78;10.58;;;;;;;17.36;86.82;101258.31;1708566;84;20948;-72
2021/06/19 03:05:09;;;;;;;12.05;10.03;;;;;;;17.42;86.75;101256.14;1708831;84;20901;-72
2021/06/19 03:07:36;;;;;;;13.22;10.18;;;;;;;17.48;86.71;101263.13;1707971;83;21815;-73
2021/06/19 03:10:06;;;;;;;12.58;10.40;;;;;;;17.53;86.75;101256.97;1708616;84;20901;-73
2021/06/19 03:12:32;;;;;;;15.10;11.80;;;;;;;17.61;86.83;101256.38;1708730;84;20944;-72
2021/06/19 03:14:59;;;;;;;13.85;11.83;;;;;;;17.68;86.81;101256.73;1708691;84;21024;-72
2021/06/19 03:17:26;;;;;;;12.05;10.82;;;;;;;17.74;86.75;101250.45;1708849;84;20858;-72
2021/06/19 03:19:53;;;;;;;16.30;12.28;;;;;;;17.79;86.66;101257.55;1708662;84;21162;-73
2021/06/19 03:22:21;;;;;;;12.78;11.40;;;;;;;17.86;86.57;101250.46;1708967;84;20984;-72
2021/06/19 03:24:48;;;;;;;12.78;11.20;;;;;;;17.92;86.57;101253.92;1708980;84;21036;-72
2021/06/19 03:27:15;;;;;;;12.63;11.40;;;;;;;17.98;86.72;101247.63;1708647;84;20913;-72
2021/06/19 03:29:44;;;;;;;11.80;10.60;;;;;;;18.08;86.74;101250.89;1708749;84;20882;-73
2021/06/19 03:32:11;;;;;;;11.30;10.23;;;;;;;18.14;86.66;101255.67;1709181;83;21700;-72
2021/06/19 03:34:41;;;;;;;11.63;10.43;;;;;;;18.27;86.49;101258.17;1708723;84;20893;-73
2021/06/19 03:37:08;;;;;;;10.55;9.55;;;;;;;18.27;86.49;101258.17;1708825;84;21032;-73
2021/06/19 03:39:35;;;;;;;11.35;10.25;;;;;;;18.30;86.48;101255.28;1708718;84;20936;-73
2021/06/19 03:42:03;;;;;;;11.65;10.53;;;;;;;18.35;86.66;101253.08;1708787;83;21402;-72
2021/06/19 03:44:30;;;;;;;10.20;9.13;;;;;;;18.44;86.77;101252.31;1708687;84;21112;-72
2021/06/19 03:46:57;;;;;;;10.63;9.55;;;;;;;18.51;86.85;101249.98;1709012;84;21667;-71
2021/06/19 03:49:24;;;;;;;9.98;8.05;;;;;;;18.59;86.89;101246.22;1708765;84;20952;-72
2021/06/19 03:51:51;;;;;;;9.60;6.47;;;;;;;18.70;87.07;101249.27;1708961;84;20941;-71
2021/06/19 03:54:19;;;;;;;8.75;6.17;;;;;;;18.82;87.46;101253.10;1708782;84;21513;-71
2021/06/19 03:56:46;;;;;;;9.25;5.47;;;;;;;18.97;87.82;101257.61;1708922;84;21149;-72
2021/06/19 03:59:13;;;;;;;10.93;5.25;;;;;;;19.19;87.95;101255.77;1708715;84;20948;-72
2021/06/19 04:01:41;;;;;;;9.75;5.35;;;;;;;19.37;87.71;101246.69;1708668;84;20976;-72
2021/06/19 04:04:08;;;;;;;10.72;4.45;;;;;;;19.59;87.39;101251.80;1708741;84;21011;-72
2021/06/19 04:06:35;;;;;;;11.00;4.22;;;;;;;19.76;86.53;101249.48;1708978;84;20933;-72
2021/06/19 04:09:01;;;;;;;9.98;4.22;;;;;;;19.94;85.68;101253.16;1708600;84;21495;-71
2021/06/19 04:11:29;;;;;;;11.75;4.08;;;;;;;20.16;84.67;101252.06;1708612;84;20956;-71
2021/06/19 04:13:58;;;;;;;10.72;3.62;;;;;;;20.43;83.39;101249.20;1708776;84;21469;-72
2021/06/19 04:16:25;;;;;;;6.20;4.28;;;;;;;20.74;81.98;101254.40;1708649;83;20913;-72
2021/06/19 04:18:52;;;;;;;9.65;3.65;;;;;;;20.95;80.59;101258.23;1708806;84;20913;-72
2021/06/19 04:21:19;;;;;;;10.40;4.00;;;;;;;21.05;78.96;101251.86;1708996;84;21133;-73
2021/06/19 04:23:45;;;;;;;14.90;4.62;;;;;;;21.22;78.61;101256.11;1708605;84;20862;-73
2021/06/19 04:26:12;;;;;;;10.28;4.25;;;;;;;21.38;77.70;101250.14;1709030;84;21378;-73
2021/06/19 04:28:39;;;;;;;7.97;3.77;;;;;;;21.51;76.40;101254.68;1708623;84;20953;-72
2021/06/19 04:31:06;;;;;;;5.50;3.40;;;;;;;21.59;75.84;101248.12;1708682;84;20944;-71
2021/06/19 04:33:33;;;;;;;9.85;3.80;;;;;;;21.65;75.22;101239.99;1708994;83;21136;-71
2021/06/19 04:36:02;;;;;;;15.50;4.20;;;;;;;21.72;74.92;101243.73;1708853;84;21023;-73
2021/06/19 04:38:29;;;;;;;9.08;3.83;;;;;;;21.75;74.48;101242.63;1708729;84;20936;-70
2021/06/19 04:41:00;;;;;;;10.75;4.17;;;;;;;21.76;73.15;101245.12;1708624;84;21505;-72
2021/06/19 04:43:29;;;;;;;8.08;3.75;;;;;;;21.76;72.36;101244.30;1708700;84;21418;-72
2021/06/19 04:45:53;;;;;;;15.80;4.15;;;;;;;21.73;71.71;101241.44;1708410;82;21222;-72
2021/06/19 04:48:20;;;;;;;11.55;3.85;;;;;;;21.68;72.34;101238.38;1708603;84;21466;-72
2021/06/19 04:50:48;;;;;;;14.40;3.62;;;;;;;21.63;72.07;101232.63;1708927;84;20933;-72
2021/06/19 04:53:15;;;;;;;6.22;3.17;;;;;;;21.58;71.57;101241.08;1708722;84;21416;-73
2021/06/19 04:55:42;;;;;;;7.80;3.42;;;;;;;21.51;71.32;101250.17;1708868;84;20932;-73
2021/06/19 04:58:09;;;;;;;9.33;3.60;;;;;;;21.44;71.11;101243.76;1708642;84;21155;-73
2021/06/19 05:00:36;;;;;;;10.85;3.35;;;;;;;21.37;71.27;101235.97;1708764;84;20889;-73
2021/06/19 05:03:06;;;;;;;11.03;3.55;;;;;;;21.33;71.63;101227.91;1708853;84;21458;-73
2021/06/19 05:05:33;;;;;;;8.00;3.25;;;;;;;21.27;71.26;101245.83;1709093;84;20956;-79
2021/06/19 05:08:02;;;;;;;8.05;3.60;;;;;;;21.19;70.85;101253.25;1708845;84;20890;-78
2021/06/19 05:10:29;;;;;;;12.18;5.45;;;;;;;21.07;71.00;101265.89;1718782;83;21112;-78
2021/06/19 05:12:56;;;;;;;10.15;4.55;;;;;;;20.96;71.67;101274.56;1721821;83;20897;-77
2021/06/19 05:15:26;;;;;;;9.43;4.83;;;;;;;20.85;71.86;101286.23;1722130;83;20944;-77
2021/06/19 05:17:54;;;;;;;12.07;4.90;;;;;;;20.76;71.95;101297.25;1721900;83;20916;-79
2021/06/19 05:20:21;;;;;;;11.50;4.62;;;;;;;20.63;72.48;101284.70;1722405;83;21449;-79
2021/06/19 05:22:48;;;;;;;10.90;6.87;;;;;;;20.49;73.23;101266.80;1721990;83;21152;-77
2021/06/19 05:25:15;;;;;;;27.37;6.60;;;;;;;20.39;73.99;101267.81;1722065;83;20940;-77
2021/06/19 05:27:43;;;;;;;14.60;6.33;;;;;;;20.27;75.28;101241.28;1721934;83;20885;-77
2021/06/19 05:30:12;;;;;;;10.78;5.12;;;;;;;20.20;76.11;101253.98;1722157;83;21433;-77
2021/06/19 05:32:40;;;;;;;14.47;5.70;;;;;;;20.09;76.63;101266.92;1722007;83;21008;-77
2021/06/19 05:35:08;;;;;;;13.03;5.35;;;;;;;19.99;76.88;101274.91;1721911;83;21128;-77
2021/06/19 05:37:35;;;;;;;13.55;5.65;;;;;;;19.95;77.14;101279.31;1722624;83;20960;-80
2021/06/19 05:40:04;;;;;;;17.12;6.47;;;;;;;19.91;77.92;101276.57;1724531;83;20881;-78
2021/06/19 05:42:32;;;;;;;17.27;6.03;;;;;;;19.83;78.43;101270.58;1725259;81;20956;-79
2021/06/19 05:44:59;;;;;;;11.43;5.67;;;;;;;19.79;79.21;101266.04;1724886;83;20952;-78
2021/06/19 05:47:26;;;;;;;14.38;6.35;;;;;;;19.77;79.57;101285.30;1724151;83;21149;-79
2021/06/19 05:49:52;;;;;;;14.50;7.00;;;;;;;19.74;80.02;101244.79;1722681;83;20884;-79
2021/06/19 05:52:21;;;;;;;14.40;6.03;;;;;;;19.70;80.17;101248.70;1722055;83;21004;-79
2021/06/19 05:54:48;;;;;;;13.53;4.80;;;;;;;19.65;80.36;101259.25;1721891;83;20979;-80
2021/06/19 05:57:16;;;;;;;10.60;5.15;;;;;;;19.60;80.74;101261.45;1722092;83;20920;-79
2021/06/19 05:59:43;;;;;;;12.45;5.35;;;;;;;19.59;81.05;101253.63;1721838;83;21070;-80
2021/06/19 06:02:10;;;;;;;10.00;4.17;;;;;;;19.61;81.23;101247.69;1722110;83;20913;-80
2021/06/19 06:04:37;;;;;;;10.15;4.20;;;;;;;19.71;81.83;101237.09;1721849;83;20853;-80
2021/06/19 06:07:06;;;;;;;10.05;3.90;;;;;;;19.85;81.85;101241.55;1721831;83;21362;-80
2021/06/19 06:09:33;;;;;;;10.65;4.67;;;;;;;20.03;81.85;101239.52;1717229;83;20933;-81
2021/06/19 06:12:01;;;;;;;8.63;4.35;;;;;;;20.21;81.69;101242.33;1700948;84;21268;-80
2021/06/19 06:14:28;;;;;;;9.08;3.90;;;;;;;20.46;81.23;101244.94;1701252;84;21363;-80
2021/06/19 06:16:57;;;;;;;6.87;2.80;;;;;;;20.91;80.95;101231.00;1700670;83;20926;-79
2021/06/19 06:19:24;;;;;;;9.75;3.17;;;;;;;21.29;79.89;101220.69;1701177;84;20877;-80
2021/06/19 06:21:50;;;;;;;7.65;2.95;;;;;;;21.93;79.25;101223.45;1700909;84;20897;-78
2021/06/19 06:24:17;;;;;;;6.72;3.42;;;;;;;22.58;77.55;101231.73;1701217;84;21089;-81
2021/06/19 06:26:47;;;;;;;9.10;2.50;;;;;;;23.28;75.02;101229.03;1700917;84;20885;-79
2021/06/19 06:29:14;;;;;;;10.82;3.33;;;;;;;23.95;72.66;101220.56;1701096;84;20941;-80
2021/06/19 06:31:42;;;;;;;6.15;2.47;;;;;;;24.49;69.75;101229.49;1701614;83;20957;-79
2021/06/19 06:34:09;;;;;;;6.80;2.33;;;;;;;24.86;68.12;101226.77;1702607;84;20956;-80
2021/06/19 06:36:36;;;;;;;5.47;2.42;;;;;;;25.04;66.60;101227.91;1702994;84;21136;-80
2021/06/19 06:39:04;;;;;;;9.10;2.12;;;;;;;25.05;65.50;101225.53;1702576;83;20913;-81
2021/06/19 06:41:31;;;;;;;5.83;3.10;;;;;;;24.98;65.27;101218.67;1701257;83;20992;-82
2021/06/19 06:43:58;;;;;;;11.55;3.00;;;;;;;24.89;65.37;101216.20;1701005;83;21020;-83
2021/06/19 06:46:25;;;;;;;8.28;2.98;;;;;;;24.88;66.23;101218.53;1701503;84;20929;-79
2021/06/19 06:48:52;;;;;;;5.42;2.95;;;;;;;24.85;65.67;101210.84;1702115;83;21058;-82
2021/06/19 06:51:19;;;;;;;10.88;3.37;;;;;;;24.95;66.21;101210.16;1701721;84;21097;-81
2021/06/19 06:53:46;;;;;;;7.72;2.33;;;;;;;25.06;65.99;101206.23;1700944;83;20905;-82
2021/06/19 06:56:13;;;;;;;8.00;2.50;;;;;;;25.17;66.00;101208.06;1702313;84;20870;-81
2021/06/19 06:58:40;;;;;;;7.97;2.70;;;;;;;25.41;66.20;101202.27;1701167;84;20929;-82
2021/06/19 07:01:08;;;;;;;7.55;2.45;;;;;;;25.72;65.20;101192.86;1701181;84;21148;-81
2021/06/19 07:03:37;;;;;;;11.00;2.70;;;;;;;26.17;64.56;101187.22;1700904;83;21091;-82
2021/06/19 07:06:07;;;;;;;5.95;2.25;;;;;;;26.69;63.38;101182.89;1701181;84;20941;-84
2021/06/19 07:08:34;;;;;;;5.08;1.90;;;;;;;27.26;61.29;101182.25;1701032;83;20901;-80
2021/06/19 07:11:02;;;;;;;9.73;2.35;;;;;;;27.87;60.51;101185.13;1700841;84;20942;-82
2021/06/19 07:13:29;;;;;;;2.37;1.25;;;;;;;28.43;58.50;101182.49;1702560;84;21147;-84
2021/06/19 07:15:56;;;;;;;3.60;1.37;;;;;;;28.93;56.39;101187.84;1702389;83;21316;-82
2021/06/19 07:18:24;;;;;;;5.25;1.85;;;;;;;29.41;54.67;101182.46;1701269;84;20986;-85
2021/06/19 07:20:51;;;;;;;6.85;1.37;;;;;;;29.87;52.93;101170.13;1702056;84;21413;-83
2021/06/19 07:23:18;;;;;;;5.97;1.80;;;;;;;30.21;51.08;101169.63;1703243;84;21021;-81
2021/06/19 07:25:46;;;;;;;3.87;1.20;;;;;;;30.58;49.62;101164.92;1702733;83;21147;-79
2021/06/19 07:28:13;;;;;;;5.33;2.72;;;;;;;30.73;48.09;101159.28;1702377;84;20917;-79
2021/06/19 07:30:40;;;;;;;2.30;1.45;;;;;;;30.69;47.47;101153.15;1701812;84;21462;-80
2021/06/19 07:33:07;;;;;;;5.50;1.30;;;;;;;30.60;45.94;101162.55;1701497;83;21278;-80
2021/06/19 07:35:34;;;;;;;6.87;1.05;;;;;;;30.50;46.42;101159.73;1702147;83;21359;-79
2021/06/19 07:38:01;;;;;;;3.75;1.15;;;;;;;30.36;46.25;101160.27;1703303;84;21302;-75
2021/06/19 07:40:28;;;;;;;4.22;1.40;;;;;;;30.32;46.45;101162.26;1703079;84;20933;-79
2021/06/19 07:42:55;;;;;;;4.47;1.42;;;;;;;30.42;46.76;101161.32;1703005;84;20858;-78
2021/06/19 07:45:22;;;;;;;5.87;1.15;;;;;;;30.55;46.11;101161.30;1702357;84;20937;-79
2021/06/19 07:47:49;;;;;;;1.92;0.95;;;;;;;30.74;45.79;101162.81;1701704;83;21024;-79
2021/06/19 07:50:16;;;;;;;8.45;1.57;;;;;;;30.88;43.18;101155.00;1700992;83;21102;-79
2021/06/19 07:52:43;;;;;;;5.12;1.17;;;;;;;31.03;44.62;101149.30;1701203;83;20941;-71
2021/06/19 07:55:11;;;;;;;4.85;1.32;;;;;;;31.26;42.33;101147.45;1700828;84;20957;-73
2021/06/19 07:57:38;;;;;;;6.53;2.10;;;;;;;31.52;43.91;101145.65;1701104;84;20949;-72
2021/06/19 08:00:06;;;;;;;14.25;3.05;;;;;;;31.80;43.40;101139.30;1700839;84;20893;-69
2021/06/19 08:02:34;;;;;;;7.58;2.27;;;;;;;32.11;43.87;101139.52;1701158;83;21146;-71
2021/06/19 08:05:03;;;;;;;4.80;1.17;;;;;;;32.37;43.04;101143.34;1700969;84;20901;-74
2021/06/19 08:07:30;;;;;;;3.30;1.05;;;;;;;32.57;41.06;101141.81;1700800;83;20969;-72
2021/06/19 08:09:57;;;;;;;4.03;1.22;;;;;;;32.69;41.35;101138.34;1703447;83;20939;-72
2021/06/19 08:12:24;;;;;;;3.37;1.12;;;;;;;32.79;41.04;101123.69;1721757;83;20880;-72
2021/06/19 08:14:51;;;;;;;5.62;1.25;;;;;;;32.85;40.65;101124.67;1721763;83;21056;-80
2021/06/19 08:17:19;;;;;;;11.80;2.37;;;;;;;32.96;39.42;101123.91;1721866;83;20991;-82
2021/06/19 08:19:46;;;;;;;6.42;1.62;;;;;;;33.04;39.85;101113.55;1721985;83;20948;-83
2021/06/19 08:22:13;;;;;;;5.25;1.90;;;;;;;33.19;40.22;101102.81;1721764;83;20904;-82
2021/06/19 08:24:40;;;;;;;6.90;1.12;;;;;;;33.33;39.80;101089.86;1721940;83;20951;-81
2021/06/19 08:27:08;;;;;;;5.92;1.10;;;;;;;33.46;39.77;101085.58;1722290;83;21379;-85
2021/06/19 08:29:35;;;;;;;5.78;1.15;;;;;;;33.61;39.93;101090.08;1722428;83;20932;-88
2021/06/19 08:32:03;;;;;;;4.65;0.98;;;;;;;33.70;38.84;101098.73;1722521;83;20968;-77
2021/06/19 08:34:29;;;;;;;9.40;1.40;;;;;;;33.72;38.20;101100.69;1722885;83;20948;-78
2021/06/19 08:36:56;;;;;;;4.60;1.20;;;;;;;33.80;38.65;101103.61;1722166;83;21063;-78
2021/06/19 08:39:23;;;;;;;5.12;1.27;;;;;;;33.96;38.09;101106.16;1721960;83;21146;-78
2021/06/19 08:41:56;;;;;;;3.42;0.70;;;;;;;34.08;37.80;101111.60;1721889;83;20995;-78
2021/06/19 08:44:24;;;;;;;7.22;1.30;;;;;;;34.09;36.30;101103.20;1722379;83;20948;-79
2021/06/19 08:46:51;;;;;;;6.80;1.42;;;;;;;34.05;36.42;101102.84;1721920;83;20988;-78
2021/06/19 08:49:21;;;;;;;6.05;1.60;;;;;;;34.05;35.83;101099.30;1722148;83;20991;-78
2021/06/19 08:51:52;;;;;;;3.90;0.93;;;;;;;34.10;36.94;101112.20;1722091;83;21173;-79
2021/06/19 08:54:17;;;;;;;7.45;2.52;;;;;;;34.17;36.52;101097.42;1722033;83;20900;-77
2021/06/19 08:56:44;;;;;;;8.50;1.80;;;;;;;34.21;36.66;101103.23;1721964;83;20928;-78
2021/06/19 08:59:11;;;;;;;4.20;0.90;;;;;;;34.23;36.77;101103.28;1722190;83;20940;-78
2021/06/19 09:01:39;;;;;;;10.58;1.10;;;;;;;34.21;36.57;101104.59;1722050;83;21078;-78
2021/06/19 09:04:08;;;;;;;5.12;0.98;;;;;;;34.09;34.57;101107.83;1722252;83;21124;-75
2021/06/19 09:06:39;;;;;;;7.60;1.50;;;;;;;33.96;35.35;101111.07;1722016;83;21410;-74
2021/06/19 09:09:15;;;;;;;8.23;1.40;;;;;;;33.91;36.11;101106.88;1722054;83;20881;-74
2021/06/19 09:11:55;;;;;;;6.72;1.25;;;;;;;33.93;36.13;101105.26;1712426;83;20897;-76
2021/06/19 09:14:27;;;;;;;7.58;1.85;;;;;;;33.82;36.23;101100.12;1711459;84;20956;-74
2021/06/19 09:17:04;;;;;;;13.35;2.67;;;;;;;33.73;35.90;101111.03;1711467;84;21823;-72
2021/06/19 09:19:37;;;;;;;5.97;0.88;;;;;;;33.59;35.82;101109.06;1711966;84;20992;-73
2021/06/19 09:22:23;;;;;;;8.08;1.05;;;;;;;33.52;37.59;101113.20;1710865;83;27004;-75
2021/06/19 09:24:56;;;;;;;3.72;1.00;;;;;;;33.58;36.59;101108.74;1709219;84;20960;-74
2021/06/19 09:27:33;;;;;;;6.05;1.32;;;;;;;33.55;36.11;101100.52;1708931;84;20905;-75
2021/06/19 09:30:18;;;;;;;11.45;1.70;;;;;;;33.55;37.21;101092.88;1708738;84;21171;-74
2021/06/19 09:32:57;;;;;;;6.05;1.42;;;;;;;33.57;36.98;101097.04;1708873;83;21422;-76
2021/06/19 09:35:33;;;;;;;8.68;2.25;;;;;;;33.63;37.49;101099.38;1708716;84;20862;-76
2021/06/19 09:38:10;;;;;;;8.25;0.95;;;;;;;33.70;38.03;101100.09;1709101;84;20932;-76
2021/06/19 09:40:47;;;;;;;10.20;1.50;;;;;;;33.79;37.35;101093.23;1708583;84;20936;-78
2021/06/19 09:43:24;;;;;;;8.90;1.40;;;;;;;33.85;37.18;101089.58;1708847;84;22067;-77
2021/06/19 09:46:09;;;;;;;5.78;1.27;;;;;;;33.87;37.84;101083.09;1708946;84;21446;-77
2021/06/19 09:48:38;;;;;;;8.75;1.10;;;;;;;33.92;37.01;101092.19;1709127;84;20865;-76
2021/06/19 09:51:23;;;;;;;8.98;1.42;;;;;;;33.91;36.52;101085.10;1709027;84;21496;-77
2021/06/19 09:54:00;;;;;;;7.80;1.35;;;;;;;33.77;36.44;101087.73;1709118;84;20953;-76
2021/06/19 09:56:26;;;;;;;7.50;1.47;;;;;;;33.61;36.76;101071.58;1705207;84;22178;-72
2021/06/19 09:58:57;;;;;;;12.88;1.72;;;;;;;33.48;37.45;101082.63;1710303;84;21031;-75
2021/06/19 10:01:37;;;;;;;8.30;1.85;;;;;;;33.38;38.43;101074.52;1709044;83;21510;-74
2021/06/19 10:04:05;;;;;;;6.92;1.50;;;;;;;33.30;36.30;101069.40;1709342;84;20980;-76
2021/06/19 10:06:32;;;;;;;9.05;1.40;;;;;;;33.19;37.34;101075.63;1708309;84;20988;-75
2021/06/19 10:08:59;;;;;;;2.98;0.85;;;;;;;33.14;37.40;101081.77;1708559;84;21172;-73
2021/06/19 10:11:28;;;;;;;4.53;1.60;;;;;;;33.03;36.72;101066.21;1704710;84;21043;-74
2021/06/19 10:13:57;;;;;;;8.45;1.22;;;;;;;32.94;38.14;101071.67;1700706;84;20929;-73
2021/06/19 10:16:24;;;;;;;9.13;1.12;;;;;;;32.97;38.01;101065.27;1700834;84;20917;-73
2021/06/19 10:18:52;;;;;;;6.95;1.02;;;;;;;32.96;38.02;101079.89;1700967;83;20862;-73
2021/06/19 10:21:22;;;;;;;6.85;1.50;;;;;;;32.95;38.98;101066.53;1700408;84;21584;-73
2021/06/19 10:23:49;;;;;;;9.63;1.30;;;;;;;33.06;38.69;101065.77;1700636;84;21431;-74
2021/06/19 10:26:24;;;;;;;2.27;1.07;;;;;;;33.19;39.19;101076.45;1700657;84;20977;-73
2021/06/19 10:28:55;;;;;;;4.47;1.57;;;;;;;33.20;38.18;101065.08;1701009;84;20952;-75
2021/06/19 10:31:22;;;;;;;8.75;1.00;;;;;;;33.22;38.77;101058.88;1700680;84;20980;-73
2021/06/19 10:33:49;;;;;;;7.33;1.15;;;;;;;33.24;37.49;101062.20;1680551;84;21165;-74
2021/06/19 10:36:16;;;;;;;6.28;1.57;;;;;;;33.10;38.64;101061.54;1700653;84;20929;-74
2021/06/19 10:38:57;;;;;;;2.90;1.50;;;;;;;33.03;38.74;101058.88;1700370;84;21028;-74
2021/06/19 10:41:49;;;;;;;7.62;1.32;;;;;;;33.03;39.21;101062.14;1699837;83;20870;-74
2021/06/19 10:44:58;;;;;;;5.03;1.37;;;;;;;32.95;38.73;101056.51;1700713;84;21072;-72
2021/06/19 10:47:32;;;;;;;8.15;1.27;;;;;;;32.91;39.27;101058.02;1700949;84;21570;-75
2021/06/19 10:50:00;;;;;;;6.45;1.72;;;;;;;32.88;39.70;101066.61;1697869;83;21004;-73
2021/06/19 10:52:34;;;;;;;13.48;1.52;;;;;;;32.87;38.48;101058.17;1700800;83;20914;-74
2021/06/19 10:55:16;;;;;;;5.62;1.07;;;;;;;32.77;38.90;101060.59;1700910;83;20988;-74
2021/06/19 10:57:45;;;;;;;7.60;1.98;;;;;;;32.63;38.77;101056.69;1701018;83;20839;-74
2021/06/19 11:00:47;;;;;;;9.65;1.70;;;;;;;32.53;39.63;101059.13;1701112;84;21137;-73
2021/06/19 11:03:16;;;;;;;5.67;1.22;;;;;;;32.51;39.03;101054.95;1700896;84;21016;-72
2021/06/19 11:05:53;;;;;;;5.62;1.25;;;;;;;32.46;40.06;101052.07;1700985;84;20901;-72
2021/06/19 11:08:21;;;;;;;10.28;1.55;;;;;;;32.50;39.64;101061.42;1700701;83;20941;-71
2021/06/19 11:10:51;;;;;;;5.72;1.47;;;;;;;32.38;39.03;101048.61;1700734;84;21476;-73
2021/06/19 11:13:35;;;;;;;7.85;1.92;;;;;;;32.21;39.52;101048.36;1700882;84;21768;-73
2021/06/19 11:16:07;;;;;;;10.20;2.25;;;;;;;32.04;39.97;101043.25;1700873;84;21352;-74
2021/06/19 11:18:55;;;;;;;8.80;2.77;;;;;;;31.91;40.26;101050.13;1693972;84;21423;-74
2021/06/19 11:21:34;;;;;;;7.83;1.85;;;;;;;31.81;41.11;101034.34;1700926;83;20905;-73
2021/06/19 11:24:06;;;;;;;10.38;3.12;;;;;;;31.71;41.04;101044.34;1700891;83;20914;-73
2021/06/19 11:27:01;;;;;;;3.58;2.60;;;;;;;31.65;41.54;101046.58;1701314;83;21163;-74
2021/06/19 11:29:38;;;;;;;7.97;1.82;;;;;;;31.61;42.25;101041.30;1700887;83;21082;-74
2021/06/19 11:32:32;;;;;;;6.72;1.42;;;;;;;31.56;42.04;101038.42;1701001;83;21355;-74